Time;durP1;ratioP1;P1;durP2;ratioP2;P2;SDS_P1;SDS_P2;PMS_P1;PMS_P2;Temp;Humidity;BMP_temperature;BMP_pressure;BME280_temperature;BME280_humidity;BME280_pressure;Samples;Min_cycle;Max_cycle;Signal;HPM_P1;HPM_P2
2022/09/19 00:00:40;;;;;;;1.27;1.17;;;;;5.80;94020.00;;;;7408434;19;20159;-77
2022/09/19 00:03:08;;;;;;;1.33;1.20;;;;;5.90;94029.00;;;;7407022;19;20600;-79
2022/09/19 00:05:42;;;;;;;2.07;1.60;;;;;5.90;94032.00;;;;7416445;19;20160;-79
2022/09/19 00:08:16;;;;;;;1.80;1.70;;;;;6.10;94025.00;;;;7424455;19;20220;-78
2022/09/19 00:10:44;;;;;;;3.00;1.90;;;;;6.10;94007.00;;;;7422433;19;20148;-79
2022/09/19 00:13:11;;;;;;;4.57;2.00;;;;;6.10;94008.00;;;;7413943;19;20164;-79
2022/09/19 00:15:49;;;;;;;3.60;2.30;;;;;6.10;94005.00;;;;7411146;19;20154;-79
2022/09/19 00:18:24;;;;;;;2.40;2.20;;;;;6.00;94006.00;;;;7414667;19;20185;-80
2022/09/19 00:21:07;;;;;;;2.50;2.30;;;;;6.00;94022.00;;;;7412305;19;20128;-79
2022/09/19 00:26:27;;;;;;;2.70;2.50;;;;;6.00;94025.00;;;;7408683;19;20164;-79
2022/09/19 00:28:54;;;;;;;4.57;2.70;;;;;6.10;94022.00;;;;7407437;19;20124;-77
2022/09/19 00:31:22;;;;;;;2.87;2.60;;;;;6.10;94030.00;;;;7407459;19;20131;-79
2022/09/19 00:33:57;;;;;;;2.60;2.40;;;;;6.20;94026.00;;;;7407678;19;20136;-80
2022/09/19 00:36:24;;;;;;;3.27;2.97;;;;;6.10;94028.00;;;;7409621;19;20148;-79
2022/09/19 00:38:52;;;;;;;4.27;3.10;;;;;6.30;94032.00;;;;7408795;19;20124;-76
2022/09/19 00:41:40;;;;;;;4.10;2.80;;;;;6.10;94046.00;;;;7402473;19;20148;-76
2022/09/19 00:44:22;;;;;;;3.30;3.00;;;;;6.20;94041.00;;;;7397025;19;20169;-77
2022/09/19 00:47:04;;;;;;;4.17;3.40;;;;;6.20;94047.00;;;;7400711;19;20599;-76
2022/09/19 00:49:37;;;;;;;3.60;2.33;;;;;6.10;94053.00;;;;7399820;19;20203;-77
2022/09/19 00:52:16;;;;;;;3.23;2.47;;;;;6.00;94063.00;;;;7397730;19;20133;-76
2022/09/19 00:54:46;;;;;;;6.10;2.50;;;;;6.10;94065.00;;;;7398294;19;20220;-76
2022/09/19 00:57:21;;;;;;;2.70;2.43;;;;;6.10;94066.00;;;;7398430;19;20125;-74
2022/09/19 00:59:49;;;;;;;2.27;1.90;;;;;6.10;94072.00;;;;7393674;19;20152;-74
2022/09/19 01:02:21;;;;;;;2.60;1.87;;;;;6.10;94077.00;;;;7397259;19;20161;-74
2022/09/19 01:04:54;;;;;;;1.60;1.50;;;;;5.90;94070.00;;;;7397624;19;20476;-74
2022/09/19 01:07:42;;;;;;;2.10;1.87;;;;;5.70;94068.00;;;;7396712;19;20128;-72
2022/09/19 01:10:30;;;;;;;1.43;1.33;;;;;5.60;94080.00;;;;7393837;19;20133;-74
2022/09/19 01:13:38;;;;;;;1.43;1.20;;;;;5.50;94081.00;;;;7395221;19;20531;-73
2022/09/19 01:16:26;;;;;;;2.20;1.20;;;;;5.50;94071.00;;;;7395174;19;20475;-75
2022/09/19 01:19:45;;;;;;;1.40;1.17;;;;;5.40;94079.00;;;;7389728;19;20247;-74
2022/09/19 01:22:44;;;;;;;4.83;1.10;;;;;5.40;94078.00;;;;7396822;19;20496;-75
2022/09/19 01:25:46;;;;;;;3.50;1.30;;;;;5.30;94083.00;;;;7394726;19;20125;-74
2022/09/19 01:28:46;;;;;;;1.73;1.13;;;;;5.30;94079.00;;;;7392916;19;20125;-73
2022/09/19 01:31:27;;;;;;;4.93;1.50;;;;;5.30;94075.00;;;;7391956;19;20522;-77
2022/09/19 01:34:13;;;;;;;4.50;1.20;;;;;5.20;94076.00;;;;7395643;19;20148;-74
2022/09/19 01:37:08;;;;;;;2.07;1.30;;;;;5.20;94084.00;;;;7394466;19;20512;-73
2022/09/19 01:39:49;;;;;;;4.83;1.50;;;;;5.10;94081.00;;;;7393151;19;20155;-73
2022/09/19 01:42:20;;;;;;;1.30;1.20;;;;;5.10;94081.00;;;;7393326;19;20128;-73
2022/09/19 01:44:54;;;;;;;7.23;1.43;;;;;5.00;94080.00;;;;7392093;19;20881;-73
2022/09/19 01:47:48;;;;;;;2.80;1.40;;;;;5.10;94088.00;;;;7393703;19;20624;-73
2022/09/19 01:50:37;;;;;;;3.13;1.20;;;;;5.00;94090.00;;;;7393947;19;20149;-73
2022/09/19 01:53:35;;;;;;;3.87;1.30;;;;;5.00;94079.00;;;;7392257;19;20686;-73
2022/09/19 01:56:11;;;;;;;4.53;1.20;;;;;5.20;94079.00;;;;7392785;19;20602;-73
2022/09/19 01:59:11;;;;;;;1.40;1.20;;;;;5.10;94085.00;;;;7391320;19;20137;-73
2022/09/19 02:02:14;;;;;;;5.57;1.10;;;;;5.00;94083.00;;;;7391034;19;20208;-74
2022/09/19 02:04:58;;;;;;;3.50;1.03;;;;;4.90;94087.00;;;;7391098;19;20129;-74
2022/09/19 02:08:03;;;;;;;2.60;1.30;;;;;5.00;94090.00;;;;7391340;19;20125;-74
2022/09/19 02:11:00;;;;;;;5.10;1.80;;;;;5.00;94090.00;;;;7388234;19;20608;-74
2022/09/19 02:13:35;;;;;;;8.30;1.30;;;;;5.00;94096.00;;;;7386726;19;20235;-73
2022/09/19 02:16:09;;;;;;;3.17;1.30;;;;;5.00;94101.00;;;;7392429;19;20169;-74
2022/09/19 02:18:56;;;;;;;5.40;1.90;;;;;5.00;94099.00;;;;7395798;19;20180;-74
2022/09/19 02:21:40;;;;;;;4.27;1.43;;;;;5.00;94102.00;;;;7393469;19;20588;-73
2022/09/19 02:24:19;;;;;;;2.60;1.50;;;;;5.00;94099.00;;;;7390846;19;20142;-74
2022/09/19 02:26:51;;;;;;;3.93;1.50;;;;;4.90;94099.00;;;;7392472;19;20647;-74
2022/09/19 02:29:30;;;;;;;6.20;1.80;;;;;5.00;94100.00;;;;7391434;19;20140;-73
2022/09/19 02:32:00;;;;;;;2.97;1.70;;;;;4.90;94100.00;;;;7389878;19;20129;-73
2022/09/19 02:34:37;;;;;;;8.90;1.83;;;;;5.00;94107.00;;;;7395306;19;20611;-73
2022/09/19 02:37:37;;;;;;;4.53;1.40;;;;;5.00;94112.00;;;;7391677;19;20226;-73
2022/09/19 02:40:35;;;;;;;5.53;1.67;;;;;5.00;94105.00;;;;7390765;19;20463;-74
2022/09/19 02:43:29;;;;;;;8.80;1.63;;;;;5.00;94106.00;;;;7390905;19;20486;-74
2022/09/19 02:46:13;;;;;;;3.67;1.53;;;;;5.00;94107.00;;;;7389995;19;20208;-74
2022/09/19 02:48:55;;;;;;;4.63;1.40;;;;;5.10;94106.00;;;;7390958;19;20192;-74
2022/09/19 02:51:36;;;;;;;2.37;1.40;;;;;5.10;94106.00;;;;7390130;19;20185;-75
2022/09/19 02:54:09;;;;;;;3.93;1.43;;;;;5.10;94108.00;;;;7392410;19;20121;-73
2022/09/19 02:56:44;;;;;;;3.60;1.60;;;;;5.00;94117.00;;;;7390742;19;20125;-73
2022/09/19 02:59:20;;;;;;;2.13;1.70;;;;;5.00;94108.00;;;;7389054;19;20133;-73
2022/09/19 03:02:00;;;;;;;2.07;1.60;;;;;5.10;94124.00;;;;7388101;19;20460;-75
2022/09/19 03:04:39;;;;;;;8.60;1.80;;;;;5.10;94119.00;;;;7391381;19;20208;-74
2022/09/19 03:07:27;;;;;;;4.00;1.70;;;;;5.20;94108.00;;;;7391074;19;20125;-74
2022/09/19 03:10:14;;;;;;;5.50;1.77;;;;;5.10;94124.00;;;;7391903;19;20128;-74
2022/09/19 03:12:57;;;;;;;3.67;1.40;;;;;5.20;94120.00;;;;7396983;19;20141;-74
2022/09/19 03:15:47;;;;;;;7.33;2.00;;;;;5.10;94117.00;;;;7397658;19;20509;-73
2022/09/19 03:18:30;;;;;;;8.20;1.90;;;;;5.20;94123.00;;;;7399133;19;20173;-74
2022/09/19 03:21:09;;;;;;;1.53;1.40;;;;;5.10;94135.00;;;;7400324;19;20148;-74
2022/09/19 03:23:47;;;;;;;3.93;1.50;;;;;5.30;94129.00;;;;7401317;19;20132;-74
2022/09/19 03:26:20;;;;;;;4.30;1.60;;;;;5.20;94140.00;;;;7398357;19;20141;-74
2022/09/19 03:28:56;;;;;;;5.17;1.57;;;;;5.30;94143.00;;;;7398891;19;20137;-74
2022/09/19 03:31:24;;;;;;;8.37;2.10;;;;;5.40;94139.00;;;;7399636;19;20129;-74
2022/09/19 03:33:52;;;;;;;6.23;2.00;;;;;5.40;94146.00;;;;7396396;19;20129;-74
2022/09/19 03:36:28;;;;;;;6.30;1.90;;;;;5.40;94141.00;;;;7396051;19;20137;-74
2022/09/19 03:39:01;;;;;;;5.13;1.60;;;;;5.50;94150.00;;;;7397884;19;20141;-74
2022/09/19 03:41:36;;;;;;;7.13;1.63;;;;;5.30;94142.00;;;;7398108;19;20139;-73
2022/09/19 03:44:04;;;;;;;5.87;1.77;;;;;5.30;94140.00;;;;7396703;19;20141;-74
2022/09/19 03:46:32;;;;;;;5.53;1.67;;;;;5.40;94143.00;;;;7395873;19;20143;-74
2022/09/19 03:49:06;;;;;;;8.50;2.00;;;;;5.50;94153.00;;;;7399413;19;20125;-73
2022/09/19 03:51:33;;;;;;;6.67;1.77;;;;;5.50;94150.00;;;;7396773;19;20113;-74
2022/09/19 03:54:06;;;;;;;4.30;1.90;;;;;5.40;94148.00;;;;7396774;19;20129;-76
2022/09/19 03:56:39;;;;;;;10.23;1.80;;;;;5.50;94151.00;;;;7397193;19;20152;-74
2022/09/19 03:59:09;;;;;;;3.70;1.43;;;;;5.40;94141.00;;;;7396676;19;20141;-73
2022/09/19 04:01:36;;;;;;;5.50;1.70;;;;;5.40;94156.00;;;;7395119;19;20128;-74
2022/09/19 04:04:13;;;;;;;5.13;1.70;;;;;5.50;94151.00;;;;7396801;19;20582;-74
2022/09/19 04:06:40;;;;;;;6.03;1.63;;;;;5.40;94155.00;;;;7396602;19;20128;-74
2022/09/19 04:09:07;;;;;;;8.03;2.17;;;;;5.40;94147.00;;;;7395198;19;20133;-74
2022/09/19 04:11:41;;;;;;;4.13;1.33;;;;;5.30;94152.00;;;;7401863;19;20133;-74
2022/09/19 04:14:09;;;;;;;10.10;1.97;;;;;5.30;94151.00;;;;7397605;19;20129;-74
2022/09/19 04:16:36;;;;;;;3.93;1.27;;;;;5.30;94159.00;;;;7396839;19;20229;-73
2022/09/19 04:19:17;;;;;;;8.97;1.63;;;;;5.30;94161.00;;;;7396172;19;20219;-74
2022/09/19 04:21:57;;;;;;;9.37;2.00;;;;;5.40;94160.00;;;;7397038;19;20144;-74
2022/09/19 04:24:31;;;;;;;6.30;1.60;;;;;5.50;94161.00;;;;7395945;19;20135;-74
2022/09/19 04:26:59;;;;;;;8.20;2.00;;;;;5.50;94160.00;;;;7394560;19;20140;-75
2022/09/19 04:29:27;;;;;;;5.20;1.80;;;;;5.50;94168.00;;;;7396538;19;20121;-74
2022/09/19 04:32:02;;;;;;;5.57;1.67;;;;;5.60;94164.00;;;;7400401;19;20124;-74
2022/09/19 04:34:33;;;;;;;6.57;1.40;;;;;5.60;94166.00;;;;7393645;19;20149;-74
2022/09/19 04:37:03;;;;;;;16.27;2.33;;;;;5.60;94178.00;;;;7396000;19;20129;-74
2022/09/19 04:39:37;;;;;;;6.90;1.93;;;;;5.60;94173.00;;;;7396870;19;20145;-74
2022/09/19 04:42:04;;;;;;;9.53;1.80;;;;;5.60;94181.00;;;;7395838;19;20494;-74
2022/09/19 04:44:31;;;;;;;4.23;2.00;;;;;5.60;94179.00;;;;7395626;19;20117;-74
2022/09/19 04:47:06;;;;;;;8.73;1.80;;;;;5.60;94181.00;;;;7396435;19;20145;-73
2022/09/19 04:49:38;;;;;;;5.53;1.80;;;;;5.70;94178.00;;;;7396116;19;20129;-73
2022/09/19 04:52:12;;;;;;;7.27;2.13;;;;;5.70;94190.00;;;;7395837;19;20165;-74
2022/09/19 04:54:48;;;;;;;7.10;1.83;;;;;5.80;94194.00;;;;7395580;19;20149;-73
2022/09/19 04:57:15;;;;;;;6.83;1.77;;;;;5.80;94184.00;;;;7393914;19;20129;-74
2022/09/19 04:59:43;;;;;;;4.63;1.70;;;;;5.80;94195.00;;;;7395591;19;20214;-74
2022/09/19 05:02:18;;;;;;;8.97;2.03;;;;;5.80;94196.00;;;;7399896;19;20180;-74
2022/09/19 05:04:46;;;;;;;4.97;1.93;;;;;5.80;94196.00;;;;7393503;19;20125;-74
2022/09/19 05:07:13;;;;;;;12.23;2.50;;;;;5.80;94202.00;;;;7394407;19;20140;-74
2022/09/19 05:09:50;;;;;;;6.33;2.00;;;;;5.90;94197.00;;;;7396113;19;20120;-74
2022/09/19 05:12:19;;;;;;;3.70;2.10;;;;;5.80;94202.00;;;;7392413;19;20140;-74
2022/09/19 05:14:47;;;;;;;5.50;1.93;;;;;5.90;94201.00;;;;7393331;19;20620;-75
2022/09/19 05:17:21;;;;;;;8.70;2.20;;;;;5.90;94205.00;;;;7393359;19;20131;-75
2022/09/19 05:19:55;;;;;;;6.23;2.13;;;;;5.80;94208.00;;;;7391213;19;20635;-75
2022/09/19 05:22:36;;;;;;;9.67;2.20;;;;;6.00;94209.00;;;;7392713;19;20128;-74
2022/09/19 05:25:04;;;;;;;5.87;1.97;;;;;5.90;94212.00;;;;7392709;19;20121;-74
2022/09/19 05:27:38;;;;;;;6.90;2.17;;;;;5.80;94210.00;;;;7394491;19;20136;-74
2022/09/19 05:30:06;;;;;;;11.97;2.30;;;;;5.90;94217.00;;;;7393378;19;20583;-74
2022/09/19 05:32:35;;;;;;;9.60;2.43;;;;;6.00;94218.00;;;;7394667;19;20140;-74
2022/09/19 05:35:09;;;;;;;16.73;2.57;;;;;5.90;94220.00;;;;7389702;19;20132;-74
2022/09/19 05:37:40;;;;;;;7.07;2.50;;;;;6.10;94222.00;;;;7391014;19;20615;-74
2022/09/19 05:40:10;;;;;;;12.07;2.40;;;;;6.00;94215.00;;;;7392608;19;20173;-76
2022/09/19 05:42:46;;;;;;;10.77;2.27;;;;;6.10;94214.00;;;;7395059;19;20144;-75
2022/09/19 05:45:14;;;;;;;7.63;2.13;;;;;6.10;94214.00;;;;7394420;19;20160;-74
2022/09/19 05:47:42;;;;;;;9.93;2.27;;;;;6.20;94211.00;;;;7397112;19;20155;-76
2022/09/19 05:50:17;;;;;;;12.37;2.50;;;;;6.10;94233.00;;;;7395348;19;20606;-75
2022/09/19 05:55:37;;;;;;;10.37;2.43;;;;;6.30;94229.00;;;;7396643;19;20147;-74
2022/09/19 05:58:06;;;;;;;10.40;2.07;;;;;6.30;94241.00;;;;7395847;19;20129;-73
2022/09/19 06:00:35;;;;;;;11.53;2.20;;;;;6.20;94235.00;;;;7393265;19;20152;-74
2022/09/19 06:03:16;;;;;;;15.93;2.30;;;;;6.30;94233.00;;;;7393974;19;20144;-74
2022/09/19 06:05:45;;;;;;;5.90;2.37;;;;;6.30;94237.00;;;;7389007;19;20144;-73
2022/09/19 06:08:22;;;;;;;9.30;2.10;;;;;6.30;94250.00;;;;7391826;19;20132;-75
2022/09/19 06:10:50;;;;;;;10.40;2.70;;;;;6.50;94239.00;;;;7393656;19;20174;-74
2022/09/19 06:13:23;;;;;;;15.17;2.60;;;;;6.40;94254.00;;;;7390390;19;20171;-74
2022/09/19 06:15:58;;;;;;;14.77;2.87;;;;;6.30;94250.00;;;;7391927;19;20529;-74
2022/09/19 06:18:32;;;;;;;10.00;2.67;;;;;6.40;94254.00;;;;7393845;19;20616;-76
2022/09/19 06:21:18;;;;;;;6.80;2.57;;;;;6.40;94249.00;;;;7393463;19;20153;-74
2022/09/19 06:23:46;;;;;;;13.03;2.90;;;;;6.30;94258.00;;;;7392464;19;20125;-75
2022/09/19 06:26:23;;;;;;;9.90;2.47;;;;;6.50;94271.00;;;;7389926;19;20151;-75
2022/09/19 06:28:51;;;;;;;11.23;2.17;;;;;6.40;94259.00;;;;7390208;19;20603;-76
2022/09/19 06:31:23;;;;;;;9.90;2.77;;;;;6.30;94265.00;;;;7389999;19;20137;-74
2022/09/19 06:33:58;;;;;;;5.80;2.20;;;;;6.30;94269.00;;;;7388763;19;20156;-74
2022/09/19 06:36:26;;;;;;;12.20;2.20;;;;;6.40;94270.00;;;;7389534;19;20159;-75
2022/09/19 06:38:54;;;;;;;10.23;2.17;;;;;6.40;94276.00;;;;7392297;19;20181;-74
2022/09/19 06:41:28;;;;;;;8.27;2.13;;;;;6.30;94287.00;;;;7392881;19;20134;-73
2022/09/19 06:43:55;;;;;;;6.60;2.20;;;;;6.30;94284.00;;;;7394706;19;20125;-74
2022/09/19 06:46:23;;;;;;;8.00;2.00;;;;;6.30;94288.00;;;;7396485;19;20131;-75
2022/09/19 06:48:57;;;;;;;9.70;2.60;;;;;6.50;94283.00;;;;7395310;19;20480;-74
2022/09/19 06:51:24;;;;;;;8.70;2.40;;;;;6.50;94286.00;;;;7397921;19;20204;-73
2022/09/19 06:53:52;;;;;;;5.93;2.20;;;;;6.70;94295.00;;;;7401464;19;20145;-73
2022/09/19 06:56:26;;;;;;;11.20;2.07;;;;;6.60;94287.00;;;;7401398;19;20155;-74
2022/09/19 06:58:53;;;;;;;10.50;2.20;;;;;6.60;94292.00;;;;7398340;19;20144;-75
2022/09/19 07:01:22;;;;;;;14.67;2.47;;;;;6.60;94291.00;;;;7401412;19;20125;-75
2022/09/19 07:03:56;;;;;;;8.80;2.17;;;;;6.90;94297.00;;;;7398812;19;20145;-74
2022/09/19 07:06:24;;;;;;;4.97;2.43;;;;;6.70;94300.00;;;;7398663;19;20133;-75
2022/09/19 07:08:53;;;;;;;10.10;2.60;;;;;6.60;94305.00;;;;7403894;19;20138;-74
2022/09/19 07:11:27;;;;;;;7.53;2.30;;;;;6.60;94316.00;;;;7398244;19;20120;-73
2022/09/19 07:13:56;;;;;;;8.77;2.23;;;;;6.60;94307.00;;;;7402967;19;20621;-74
2022/09/19 07:16:24;;;;;;;7.93;2.20;;;;;6.80;94314.00;;;;7401843;19;20144;-75
2022/09/19 07:19:09;;;;;;;15.33;2.67;;;;;6.70;94317.00;;;;7398126;19;20171;-74
2022/09/19 07:21:36;;;;;;;8.53;2.40;;;;;6.80;94311.00;;;;7399543;19;20117;-75
2022/09/19 07:24:15;;;;;;;16.87;2.97;;;;;6.90;94314.00;;;;7400836;19;20141;-76
2022/09/19 07:26:42;;;;;;;7.33;2.80;;;;;6.80;94324.00;;;;7399720;19;20141;-74
2022/09/19 07:29:13;;;;;;;14.57;2.23;;;;;6.90;94318.00;;;;7398696;19;20474;-74
2022/09/19 07:31:47;;;;;;;11.37;2.70;;;;;6.90;94316.00;;;;7396983;19;20129;-74
2022/09/19 07:34:15;;;;;;;9.33;2.33;;;;;7.00;94325.00;;;;7398621;19;20152;-75
2022/09/19 07:36:42;;;;;;;13.37;2.80;;;;;7.00;94320.00;;;;7399027;19;20136;-75
2022/09/19 07:39:16;;;;;;;18.73;2.80;;;;;7.10;94321.00;;;;7401652;19;20590;-74
2022/09/19 07:41:50;;;;;;;11.83;2.83;;;;;7.00;94329.00;;;;7405573;19;20133;-74
2022/09/19 07:44:24;;;;;;;12.13;2.80;;;;;7.00;94330.00;;;;7409942;19;20128;-75
2022/09/19 07:49:50;;;;;;;16.60;2.67;;;;;7.10;94336.00;;;;7413359;19;20128;-74
2022/09/19 07:52:17;;;;;;;12.63;2.80;;;;;7.00;94339.00;;;;7402093;19;20146;-75
2022/09/19 07:54:45;;;;;;;15.97;2.83;;;;;7.00;94343.00;;;;7401277;19;20144;-72
2022/09/19 07:57:19;;;;;;;12.80;2.53;;;;;7.20;94340.00;;;;7405982;19;20125;-75
2022/09/19 07:59:47;;;;;;;12.70;2.90;;;;;7.40;94338.00;;;;7409265;19;20145;-75
2022/09/19 08:02:16;;;;;;;14.50;3.20;;;;;7.40;94345.00;;;;7409230;19;20153;-74
2022/09/19 08:04:50;;;;;;;14.57;3.13;;;;;7.50;94360.00;;;;7400306;19;20137;-73
2022/09/19 08:07:18;;;;;;;14.93;2.80;;;;;7.50;94353.00;;;;7398460;19;20742;-73
2022/09/19 08:09:45;;;;;;;12.50;2.93;;;;;7.50;94353.00;;;;7397227;19;20137;-73
2022/09/19 08:12:19;;;;;;;22.60;3.43;;;;;7.40;94365.00;;;;7396787;19;20170;-71
2022/09/19 08:14:46;;;;;;;14.87;2.90;;;;;7.60;94360.00;;;;7401215;19;20128;-72
2022/09/19 08:17:14;;;;;;;10.10;2.70;;;;;7.70;94366.00;;;;7408678;19;20129;-71
2022/09/19 08:20:02;;;;;;;14.63;2.73;;;;;7.50;94361.00;;;;7405338;19;20152;-74
2022/09/19 08:22:36;;;;;;;10.00;2.40;;;;;7.90;94368.00;;;;7403846;19;20153;-72
2022/09/19 08:25:10;;;;;;;11.07;2.40;;;;;7.90;94369.00;;;;7403216;19;20969;-73
2022/09/19 08:27:42;;;;;;;12.30;2.50;;;;;8.20;94376.00;;;;7399079;19;20129;-74
2022/09/19 08:30:10;;;;;;;9.20;2.80;;;;;8.00;94366.00;;;;7400343;19;20141;-75
2022/09/19 08:32:49;;;;;;;8.37;2.50;;;;;8.10;94370.00;;;;7396411;19;20141;-74
2022/09/19 08:35:19;;;;;;;8.10;2.43;;;;;8.20;94376.00;;;;7395858;19;20472;-74
2022/09/19 08:37:55;;;;;;;8.33;2.87;;;;;8.30;94377.00;;;;7395137;19;20599;-73
2022/09/19 08:40:28;;;;;;;9.50;2.30;;;;;8.60;94376.00;;;;7396827;19;20129;-73
2022/09/19 08:43:18;;;;;;;7.53;2.23;;;;;8.40;94384.00;;;;7401859;19;20165;-73
2022/09/19 08:46:12;;;;;;;9.27;2.40;;;;;8.20;94383.00;;;;7408448;19;20117;-73
2022/09/19 08:49:10;;;;;;;8.53;2.33;;;;;8.20;94388.00;;;;7397508;19;20623;-74
2022/09/19 08:51:50;;;;;;;9.10;2.23;;;;;8.40;94389.00;;;;7396491;19;20131;-74
2022/09/19 08:54:44;;;;;;;9.43;2.83;;;;;8.40;94386.00;;;;7395207;19;20609;-74
2022/09/19 08:57:25;;;;;;;9.27;2.37;;;;;8.40;94381.00;;;;7400482;19;20140;-74
2022/09/19 09:00:13;;;;;;;12.43;2.60;;;;;8.60;94383.00;;;;7404710;19;20157;-73
2022/09/19 09:02:41;;;;;;;6.93;2.43;;;;;9.00;94390.00;;;;7413917;19;20153;-73
2022/09/19 09:05:44;;;;;;;9.80;3.23;;;;;9.40;94386.00;;;;7410556;19;20164;-74
2022/09/19 09:08:33;;;;;;;11.67;3.30;;;;;9.10;94388.00;;;;7404231;19;20610;-76
2022/09/19 09:11:07;;;;;;;17.17;3.20;;;;;9.20;94398.00;;;;7417358;19;20152;-77
2022/09/19 09:13:55;;;;;;;10.53;2.80;;;;;9.30;94388.00;;;;7408039;19;20137;-75
2022/09/19 09:17:23;;;;;;;7.60;2.60;;;;;9.10;94395.00;;;;7404477;19;20242;-76
2022/09/19 09:20:26;;;;;;;11.20;3.77;;;;;9.00;94394.00;;;;7402442;19;20643;-73
2022/09/19 09:23:06;;;;;;;10.93;2.90;;;;;9.20;94402.00;;;;7395463;19;20149;-74
2022/09/19 09:25:39;;;;;;;7.13;2.77;;;;;9.60;94399.00;;;;7390629;19;20168;-75
2022/09/19 09:28:32;;;;;;;12.47;3.07;;;;;9.90;94402.00;;;;7395182;19;20161;-75
2022/09/19 09:31:24;;;;;;;16.60;4.43;;;;;9.70;94383.00;;;;7395943;19;20176;-74
2022/09/19 09:34:22;;;;;;;7.47;3.05;;;;;10.10;94391.00;;;;7391218;19;20153;-74
2022/09/19 09:36:59;;;;;;;6.27;2.00;;;;;10.40;94402.00;;;;7392190;19;20135;-75
2022/09/19 09:40:08;;;;;;;10.38;5.38;;;;;10.20;94391.00;;;;7386248;19;20136;-74
2022/09/19 09:43:02;;;;;;;6.77;1.87;;;;;9.60;94399.00;;;;7391941;19;20208;-74
2022/09/19 09:45:45;;;;;;;10.50;2.20;;;;;9.70;94397.00;;;;7391040;19;20133;-75
2022/09/19 09:48:33;;;;;;;7.88;1.90;;;;;9.60;94400.00;;;;7390645;19;20614;-75
2022/09/19 09:51:25;;;;;;;10.37;2.40;;;;;9.60;94395.00;;;;7391856;19;20129;-75
2022/09/19 09:57:58;;;;;;;7.50;2.77;;;;;10.00;94401.00;;;;7394289;19;20619;-74
2022/09/19 10:03:57;;;;;;;5.03;1.60;;;;;9.50;94402.00;;;;7392707;19;20915;-73
2022/09/19 10:06:54;;;;;;;7.13;2.33;;;;;9.90;94402.00;;;;7389555;19;20476;-73
2022/09/19 10:09:34;;;;;;;10.63;4.15;;;;;10.10;94408.00;;;;7392140;19;20185;-74
2022/09/19 10:12:36;;;;;;;5.87;1.90;;;;;9.70;94407.00;;;;7391937;19;20149;-74
2022/09/19 10:15:22;;;;;;;6.43;2.60;;;;;9.50;94397.00;;;;7386619;19;20178;-74
2022/09/19 10:18:07;;;;;;;8.93;3.10;;;;;10.30;94391.00;;;;7390322;19;20493;-75
2022/09/19 10:20:56;;;;;;;9.70;3.70;;;;;10.40;94398.00;;;;7392271;19;20155;-75
2022/09/19 10:23:32;;;;;;;5.63;1.73;;;;;11.00;94401.00;;;;7394335;19;20136;-75
2022/09/19 10:26:15;;;;;;;7.70;1.65;;;;;11.50;94407.00;;;;7388915;19;20607;-74
2022/09/19 10:29:02;;;;;;;2.78;1.23;;;;;11.30;94401.00;;;;7390567;19;20133;-74
2022/09/19 10:31:39;;;;;;;6.30;1.52;;;;;11.70;94403.00;;;;7388098;19;20141;-75
2022/09/19 10:34:31;;;;;;;4.90;1.40;;;;;11.40;94406.00;;;;7392160;19;20511;-74
2022/09/19 10:37:11;;;;;;;2.55;1.30;;;;;10.90;94407.00;;;;7389935;19;20140;-74
2022/09/19 10:39:44;;;;;;;6.43;1.52;;;;;11.00;94403.00;;;;7390497;19;20215;-75
2022/09/19 10:42:30;;;;;;;6.78;1.88;;;;;10.90;94411.00;;;;7390744;19;20136;-74
2022/09/19 10:44:59;;;;;;;4.47;1.50;;;;;11.10;94416.00;;;;7389625;19;20158;-73
2022/09/19 10:47:36;;;;;;;7.05;2.50;;;;;10.80;94419.00;;;;7390069;19;20191;-75
2022/09/19 10:50:05;;;;;;;7.88;2.72;;;;;10.70;94417.00;;;;7391283;19;20153;-74
2022/09/19 10:52:33;;;;;;;5.72;1.75;;;;;10.60;94405.00;;;;7390723;19;20144;-74
2022/09/19 10:55:21;;;;;;;4.28;1.48;;;;;11.00;94403.00;;;;7388473;19;20132;-75
2022/09/19 10:58:02;;;;;;;6.07;1.70;;;;;11.40;94409.00;;;;7387965;19;20502;-73
2022/09/19 11:01:04;;;;;;;4.63;1.50;;;;;11.30;94410.00;;;;7385325;19;20128;-75
2022/09/19 11:03:35;;;;;;;3.30;1.17;;;;;11.10;94421.00;;;;7385653;19;20128;-74
2022/09/19 11:06:15;;;;;;;5.13;1.58;;;;;11.40;94426.00;;;;7386736;19;20200;-73
2022/09/19 11:08:48;;;;;;;3.55;1.20;;;;;11.30;94424.00;;;;7389413;19;20138;-75
2022/09/19 11:11:37;;;;;;;4.13;1.42;;;;;11.30;94426.00;;;;7390217;19;20137;-76
2022/09/19 11:14:18;;;;;;;2.47;1.20;;;;;11.40;94415.00;;;;7389043;19;20200;-74
2022/09/19 11:17:16;;;;;;;4.53;1.40;;;;;11.50;94418.00;;;;7392018;19;20161;-73
2022/09/19 11:20:16;;;;;;;6.38;1.70;;;;;12.60;94421.00;;;;7389861;19;20161;-74
2022/09/19 11:23:32;;;;;;;6.28;2.25;;;;;12.50;94425.00;;;;7385911;19;20192;-75
2022/09/19 11:26:28;;;;;;;3.92;1.20;;;;;12.40;94423.00;;;;7384843;19;20151;-74
2022/09/19 11:29:36;;;;;;;2.97;1.00;;;;;12.00;94436.00;;;;7383772;19;20619;-74
2022/09/19 11:32:34;;;;;;;4.22;1.08;;;;;11.70;94439.00;;;;7385309;19;20135;-74
2022/09/19 11:35:42;;;;;;;11.60;1.70;;;;;11.50;94421.00;;;;7393978;19;20144;-74
2022/09/19 11:38:38;;;;;;;5.55;1.30;;;;;11.60;94426.00;;;;7391439;19;20722;-75
2022/09/19 11:41:39;;;;;;;2.92;1.10;;;;;11.80;94442.00;;;;7391467;19;20610;-75
2022/09/19 11:44:20;;;;;;;2.38;1.30;;;;;11.30;94444.00;;;;7393239;19;20230;-73
2022/09/19 11:46:55;;;;;;;4.70;1.30;;;;;10.70;94445.00;;;;7393242;19;20621;-73
2022/09/19 11:49:46;;;;;;;5.15;1.40;;;;;11.10;94443.00;;;;7393713;19;20170;-73
2022/09/19 11:53:11;;;;;;;3.45;1.50;;;;;11.10;94448.00;;;;7392422;19;20174;-73
2022/09/19 11:55:46;;;;;;;4.85;1.13;;;;;11.20;94441.00;;;;7389016;19;20646;-73
2022/09/19 11:58:36;;;;;;;4.55;1.48;;;;;11.30;94438.00;;;;7392048;19;20140;-73
2022/09/19 12:01:43;;;;;;;5.43;1.50;;;;;11.50;94436.00;;;;7393363;19;20596;-75
2022/09/19 12:04:42;;;;;;;2.83;1.48;;;;;11.40;94429.00;;;;7392570;19;20152;-74
2022/09/19 12:07:27;;;;;;;6.28;1.35;;;;;11.20;94440.00;;;;7391500;19;20155;-74
2022/09/19 12:10:32;;;;;;;5.70;1.23;;;;;10.90;94427.00;;;;7392426;19;20137;-73
2022/09/19 12:13:16;;;;;;;4.38;1.30;;;;;10.80;94427.00;;;;7391468;19;20156;-73
2022/09/19 12:16:10;;;;;;;2.58;1.23;;;;;11.10;94420.00;;;;7388538;19;20129;-75
2022/09/19 12:18:50;;;;;;;5.10;1.30;;;;;11.20;94415.00;;;;7391739;19;20181;-74
2022/09/19 12:21:44;;;;;;;10.57;1.58;;;;;11.60;94400.00;;;;7394243;19;20148;-72
2022/09/19 12:24:52;;;;;;;3.63;2.08;;;;;12.50;94401.00;;;;7393698;19;20133;-74
2022/09/19 12:27:39;;;;;;;6.68;1.23;;;;;12.80;94399.00;;;;7392238;19;20610;-73
2022/09/19 12:30:12;;;;;;;3.97;1.65;;;;;12.80;94393.00;;;;7394527;19;20756;-74
2022/09/19 12:32:59;;;;;;;3.70;1.30;;;;;12.50;94387.00;;;;7392487;19;20129;-74
2022/09/19 12:35:51;;;;;;;3.80;1.40;;;;;12.80;94397.00;;;;7390943;19;20144;-74
2022/09/19 12:38:48;;;;;;;7.60;1.35;;;;;12.60;94395.00;;;;7391235;19;20157;-73
2022/09/19 12:41:39;;;;;;;5.05;1.40;;;;;12.20;94393.00;;;;7391934;19;20263;-75
2022/09/19 12:44:27;;;;;;;2.72;1.42;;;;;12.30;94391.00;;;;7390386;19;20638;-73
2022/09/19 12:47:15;;;;;;;8.60;1.88;;;;;12.70;94378.00;;;;7392462;19;20136;-76
2022/09/19 12:50:01;;;;;;;9.88;1.20;;;;;13.20;94374.00;;;;7392830;19;20149;-74
2022/09/19 12:52:39;;;;;;;3.88;1.20;;;;;13.50;94392.00;;;;7392563;19;20125;-73
2022/09/19 12:55:47;;;;;;;4.80;1.02;;;;;12.90;94393.00;;;;7394192;19;20592;-74
2022/09/19 12:58:17;;;;;;;3.95;1.55;;;;;13.00;94391.00;;;;7392170;19;20148;-74
2022/09/19 13:01:00;;;;;;;8.00;1.50;;;;;12.90;94388.00;;;;7390296;19;20494;-74
2022/09/19 13:03:38;;;;;;;2.85;1.27;;;;;13.30;94358.00;;;;7392313;19;20133;-73
2022/09/19 13:06:18;;;;;;;4.85;1.20;;;;;14.30;94363.00;;;;7391857;19;20147;-72
2022/09/19 13:09:04;;;;;;;5.13;1.50;;;;;14.50;94356.00;;;;7391602;19;20248;-73
2022/09/19 13:11:59;;;;;;;3.25;1.20;;;;;14.70;94355.00;;;;7392592;19;20538;-73
2022/09/19 13:15:05;;;;;;;7.20;1.10;;;;;15.10;94344.00;;;;7395221;19;21209;-73
2022/09/19 13:23:38;;;;;;;3.83;1.08;;;;;13.10;94370.00;;;;7392970;19;20141;-70
2022/09/19 13:26:16;;;;;;;5.13;1.48;;;;;12.70;94377.00;;;;7393906;19;20132;-74
2022/09/19 13:28:51;;;;;;;2.00;0.90;;;;;12.60;94372.00;;;;7396434;19;20116;-72
2022/09/19 13:31:39;;;;;;;6.68;0.85;;;;;13.10;94364.00;;;;7396630;19;20145;-74
2022/09/19 13:34:33;;;;;;;4.05;0.90;;;;;13.10;94359.00;;;;7393978;19;20212;-73
2022/09/19 13:37:06;;;;;;;1.20;0.85;;;;;13.10;94367.00;;;;7394574;19;20496;-73
2022/09/19 13:40:14;;;;;;;2.50;0.82;;;;;12.90;94372.00;;;;7392135;19;20220;-73
2022/09/19 13:42:58;;;;;;;3.10;1.20;;;;;12.60;94369.00;;;;7392461;19;20521;-73
2022/09/19 13:45:45;;;;;;;1.25;0.80;;;;;13.40;94361.00;;;;7395322;19;20157;-71
2022/09/19 13:48:34;;;;;;;2.72;1.10;;;;;14.00;94349.00;;;;7392476;19;20153;-72